Time;durP1;ratioP1;P1;durP2;ratioP2;P2;SDS_P1;SDS_P2;PMS_P1;PMS_P2;Temp;Humidity;BMP_temperature;BMP_pressure;BME280_temperature;BME280_humidity;BME280_pressure;Samples;Min_cycle;Max_cycle;Signal;HPM_P1;HPM_P2
2024/02/18 00:00:14;;;;;;;13.10;10.30;;;10.70;93.30;;;;;;5096987;28;20254;-68
2024/02/18 00:02:41;;;;;;;17.08;12.07;;;10.70;94.00;;;;;;5096996;28;20224;-68
2024/02/18 00:05:12;;;;;;;15.27;11.15;;;10.70;94.00;;;;;;5095887;28;20524;-68
2024/02/18 00:07:39;;;;;;;16.20;11.48;;;10.80;93.90;;;;;;5096545;28;20212;-68
2024/02/18 00:10:07;;;;;;;13.65;10.23;;;10.70;93.70;;;;;;5096550;28;20185;-68
2024/02/18 00:12:34;;;;;;;15.15;10.02;;;10.80;93.60;;;;;;5096599;28;20205;-68
2024/02/18 00:15:01;;;;;;;16.20;10.25;;;10.80;93.60;;;;;;5097215;28;20251;-68
2024/02/18 00:17:28;;;;;;;17.48;11.85;;;10.70;93.80;;;;;;5096852;28;20220;-68
2024/02/18 00:19:55;;;;;;;13.13;10.00;;;10.80;93.90;;;;;;5096866;28;20229;-68
2024/02/18 00:22:23;;;;;;;13.43;10.30;;;10.70;93.90;;;;;;5096760;28;20631;-68
2024/02/18 00:24:55;;;;;;;13.80;10.10;;;10.80;93.90;;;;;;5096802;28;21008;-69
2024/02/18 00:27:22;;;;;;;19.00;10.55;;;10.80;93.60;;;;;;5097385;28;20209;-68
2024/02/18 00:29:49;;;;;;;14.00;9.90;;;10.80;93.40;;;;;;5097016;28;20667;-68
2024/02/18 00:32:16;;;;;;;14.45;10.50;;;10.90;93.40;;;;;;5096570;28;20202;-69
2024/02/18 00:34:43;;;;;;;16.42;10.63;;;10.80;93.50;;;;;;5096524;28;20215;-68
2024/02/18 00:37:10;;;;;;;16.48;11.88;;;10.80;93.60;;;;;;5097033;28;20574;-68
2024/02/18 00:39:39;;;;;;;15.27;11.27;;;10.80;93.70;;;;;;5096708;28;20542;-68
2024/02/18 00:42:08;;;;;;;15.90;12.05;;;10.70;93.90;;;;;;5096321;28;20316;-68
2024/02/18 00:44:35;;;;;;;13.70;11.30;;;10.70;94.00;;;;;;5096571;28;20197;-68
2024/02/18 00:47:02;;;;;;;14.32;10.60;;;10.80;94.10;;;;;;5096348;28;20230;-68
2024/02/18 00:49:30;;;;;;;14.82;12.40;;;10.80;94.10;;;;;;5096290;28;20185;-68
2024/02/18 00:51:57;;;;;;;13.40;9.75;;;10.80;94.20;;;;;;5096435;28;20216;-68
2024/02/18 00:54:26;;;;;;;18.83;11.50;;;10.80;94.20;;;;;;5096173;28;20220;-68
2024/02/18 00:56:54;;;;;;;14.93;11.50;;;10.80;94.00;;;;;;5096147;28;20686;-68
2024/02/18 00:59:22;;;;;;;18.65;12.00;;;10.80;93.90;;;;;;5077100;28;20636;-69
2024/02/18 01:01:49;;;;;;;18.98;12.52;;;10.80;94.00;;;;;;5075976;28;20193;-68
2024/02/18 01:04:16;;;;;;;18.27;11.98;;;10.80;94.10;;;;;;5075957;28;20254;-68
2024/02/18 01:06:43;;;;;;;18.17;11.98;;;10.70;94.00;;;;;;5074921;28;20622;-68
2024/02/18 01:09:10;;;;;;;15.05;11.10;;;10.70;94.20;;;;;;5074665;28;20217;-68
2024/02/18 01:11:37;;;;;;;17.60;11.63;;;10.70;94.10;;;;;;5075432;28;20190;-68
2024/02/18 01:14:05;;;;;;;12.88;10.32;;;10.80;94.20;;;;;;5075411;28;20260;-68
2024/02/18 01:16:32;;;;;;;13.98;10.57;;;10.80;94.10;;;;;;5075520;28;20189;-68
2024/02/18 01:18:59;;;;;;;15.30;10.55;;;10.80;94.00;;;;;;5075669;28;20193;-68
2024/02/18 01:21:27;;;;;;;15.48;10.10;;;10.80;93.80;;;;;;5075362;28;20230;-69
2024/02/18 01:23:54;;;;;;;13.23;11.00;;;10.80;93.70;;;;;;5075638;28;20194;-68
2024/02/18 01:26:21;;;;;;;16.15;11.43;;;10.70;93.70;;;;;;5075265;28;20251;-69
2024/02/18 01:28:48;;;;;;;15.75;10.90;;;10.80;93.90;;;;;;5075667;28;20247;-68
2024/02/18 01:31:16;;;;;;;10.48;8.90;;;10.70;93.90;;;;;;5075143;28;20229;-68
2024/02/18 01:33:45;;;;;;;12.77;10.60;;;10.70;93.70;;;;;;5074948;28;20764;-68
2024/02/18 01:36:12;;;;;;;15.63;10.65;;;10.70;93.80;;;;;;5074994;28;20181;-68
2024/02/18 01:38:39;;;;;;;17.52;11.18;;;10.70;94.00;;;;;;5075296;28;20221;-68
2024/02/18 01:41:07;;;;;;;15.95;11.02;;;10.70;93.90;;;;;;5074155;28;20222;-69
2024/02/18 01:43:34;;;;;;;15.67;11.53;;;10.70;94.10;;;;;;5075166;28;20178;-69
2024/02/18 01:46:01;;;;;;;13.15;10.00;;;10.70;94.10;;;;;;5074820;28;20432;-68
2024/02/18 01:48:31;;;;;;;13.55;10.55;;;10.70;94.20;;;;;;5074155;28;20229;-68
2024/02/18 01:50:59;;;;;;;13.38;10.82;;;10.70;94.10;;;;;;5075294;28;20202;-68
2024/02/18 01:53:27;;;;;;;15.25;10.75;;;10.70;93.90;;;;;;5074618;28;20218;-68
2024/02/18 01:55:56;;;;;;;16.90;10.75;;;10.70;93.90;;;;;;5074327;28;20240;-68
2024/02/18 01:58:23;;;;;;;15.38;11.15;;;10.70;93.80;;;;;;5074866;28;20590;-68
2024/02/18 02:00:51;;;;;;;17.92;12.45;;;10.70;93.90;;;;;;5074792;28;20247;-68
2024/02/18 02:03:19;;;;;;;18.75;12.63;;;10.60;93.90;;;;;;5074795;28;20280;-68
2024/02/18 02:05:48;;;;;;;14.45;10.05;;;10.70;94.10;;;;;;5074714;28;20189;-69
2024/02/18 02:08:16;;;;;;;15.15;11.07;;;10.70;94.10;;;;;;5054602;28;20284;-69
2024/02/18 02:10:43;;;;;;;15.23;10.32;;;10.60;94.20;;;;;;5054680;28;20618;-68
2024/02/18 02:13:11;;;;;;;15.45;10.30;;;10.70;94.00;;;;;;5054252;28;20210;-68
2024/02/18 02:15:38;;;;;;;15.40;11.27;;;10.70;94.10;;;;;;5066600;28;20187;-68
2024/02/18 02:18:05;;;;;;;14.45;11.73;;;10.70;93.80;;;;;;5073677;28;20604;-68
2024/02/18 02:20:32;;;;;;;14.00;11.85;;;10.70;93.80;;;;;;5074233;28;20259;-68
2024/02/18 02:23:01;;;;;;;13.63;10.75;;;10.70;94.00;;;;;;5074134;28;20713;-68
2024/02/18 02:25:28;;;;;;;17.83;11.73;;;10.70;93.90;;;;;;5074073;28;20185;-68
2024/02/18 02:28:06;;;;;;;16.02;11.40;;;10.70;93.90;;;;;;5074138;28;20546;-68
2024/02/18 02:30:35;;;;;;;13.35;11.57;;;10.70;93.50;;;;;;5073889;28;20251;-68
2024/02/18 02:33:02;;;;;;;17.00;11.15;;;10.70;93.10;;;;;;5074216;28;20249;-68
2024/02/18 02:35:29;;;;;;;16.75;12.20;;;10.70;92.90;;;;;;5073066;28;20226;-69
2024/02/18 02:37:58;;;;;;;15.80;12.80;;;10.60;93.10;;;;;;5074200;28;20632;-68
2024/02/18 02:40:26;;;;;;;18.58;11.60;;;10.50;93.00;;;;;;5073810;28;20660;-68
2024/02/18 02:42:54;;;;;;;17.02;11.40;;;10.40;93.30;;;;;;5073070;28;20649;-67
2024/02/18 02:45:20;;;;;;;14.55;11.13;;;10.30;93.80;;;;;;5073420;28;20229;-69
2024/02/18 02:47:51;;;;;;;12.40;10.52;;;10.20;94.10;;;;;;5073596;28;20186;-68
2024/02/18 02:50:18;;;;;;;14.80;10.13;;;10.20;94.10;;;;;;5073955;28;20228;-68
2024/02/18 02:52:45;;;;;;;18.63;11.82;;;10.10;94.50;;;;;;5073284;28;20249;-68
2024/02/18 02:55:13;;;;;;;18.52;11.27;;;10.10;94.50;;;;;;5073537;28;20190;-68
2024/02/18 02:57:40;;;;;;;16.60;10.90;;;10.10;94.70;;;;;;5073826;28;20190;-68
2024/02/18 03:00:10;;;;;;;15.23;11.32;;;10.10;95.00;;;;;;5073781;28;20230;-68
2024/02/18 03:02:37;;;;;;;15.27;11.32;;;10.10;94.80;;;;;;5073428;28;20190;-68
2024/02/18 03:05:09;;;;;;;15.57;12.20;;;10.10;94.90;;;;;;5073540;28;20228;-69
2024/02/18 03:07:36;;;;;;;19.83;13.73;;;10.10;95.10;;;;;;5073820;28;20186;-69
2024/02/18 03:10:03;;;;;;;16.02;12.95;;;10.10;95.30;;;;;;5073465;28;20579;-69
2024/02/18 03:12:30;;;;;;;17.45;13.48;;;10.10;95.40;;;;;;5073344;28;20186;-67
2024/02/18 03:14:58;;;;;;;15.00;11.55;;;10.10;95.50;;;;;;5073356;28;20187;-68
2024/02/18 03:17:24;;;;;;;17.52;11.25;;;10.20;95.40;;;;;;5073372;28;20217;-68
2024/02/18 03:19:53;;;;;;;18.30;12.90;;;10.10;95.30;;;;;;5073642;28;20190;-68
2024/02/18 03:22:23;;;;;;;16.83;12.63;;;10.10;95.30;;;;;;5072975;28;20194;-68
2024/02/18 03:24:50;;;;;;;19.65;14.30;;;10.20;95.20;;;;;;5073324;28;20182;-68
2024/02/18 03:27:18;;;;;;;20.08;15.52;;;10.20;95.00;;;;;;5073143;28;20221;-68
2024/02/18 03:29:45;;;;;;;16.20;12.75;;;10.10;94.70;;;;;;5073233;28;20221;-68
2024/02/18 03:32:12;;;;;;;21.33;13.05;;;10.10;94.50;;;;;;5076117;28;20186;-68
2024/02/18 03:34:40;;;;;;;18.80;11.63;;;10.10;94.70;;;;;;5077267;28;20218;-68
2024/02/18 03:37:07;;;;;;;16.58;11.77;;;10.20;94.60;;;;;;5077585;28;20225;-67
2024/02/18 03:39:35;;;;;;;15.05;11.30;;;10.20;93.90;;;;;;5077247;28;20193;-67
2024/02/18 03:42:02;;;;;;;17.73;12.57;;;10.10;93.80;;;;;;5076726;28;20304;-67
2024/02/18 03:44:29;;;;;;;14.85;10.52;;;10.10;93.80;;;;;;5077523;28;20275;-67
2024/02/18 03:46:57;;;;;;;14.13;10.10;;;10.00;93.70;;;;;;5077302;28;20194;-68
2024/02/18 03:49:23;;;;;;;14.68;10.23;;;10.00;93.90;;;;;;5077060;28;20248;-68
2024/02/18 03:51:51;;;;;;;14.60;11.00;;;9.90;94.60;;;;;;5077194;28;20273;-68
2024/02/18 03:54:18;;;;;;;19.75;13.68;;;9.90;94.90;;;;;;5077119;28;20564;-69
2024/02/18 03:56:47;;;;;;;14.93;10.70;;;9.90;95.20;;;;;;5076761;28;20199;-69
2024/02/18 03:59:14;;;;;;;14.88;12.00;;;9.90;95.20;;;;;;5077153;28;20239;-69
2024/02/18 04:01:41;;;;;;;18.02;11.32;;;10.00;94.50;;;;;;5076463;28;20656;-69
2024/02/18 04:04:09;;;;;;;13.80;10.10;;;10.00;93.80;;;;;;5076999;28;20237;-69
2024/02/18 04:06:36;;;;;;;16.50;10.63;;;9.90;94.60;;;;;;5076978;28;20280;-69
2024/02/18 04:09:02;;;;;;;12.65;9.85;;;9.90;94.80;;;;;;5077024;28;20271;-69
2024/02/18 04:11:30;;;;;;;13.43;10.55;;;9.90;94.90;;;;;;5076283;28;20649;-69
2024/02/18 04:14:01;;;;;;;12.80;10.45;;;9.90;95.10;;;;;;5076541;28;20250;-69
2024/02/18 04:16:28;;;;;;;15.27;10.18;;;9.90;95.20;;;;;;5076592;28;20220;-69
2024/02/18 04:18:55;;;;;;;14.23;9.63;;;9.90;95.10;;;;;;5076849;28;20190;-68
2024/02/18 04:21:22;;;;;;;16.65;9.90;;;9.90;94.90;;;;;;5076192;28;20186;-69
2024/02/18 04:23:49;;;;;;;13.50;9.50;;;9.90;94.70;;;;;;5075969;28;20190;-69
2024/02/18 04:26:17;;;;;;;11.63;9.00;;;9.90;94.80;;;;;;5076711;28;20247;-69
2024/02/18 04:28:45;;;;;;;11.75;9.23;;;9.90;95.00;;;;;;5076599;28;20197;-69
2024/02/18 04:31:14;;;;;;;12.60;9.45;;;9.90;94.80;;;;;;5076565;28;20277;-69
2024/02/18 04:33:40;;;;;;;12.38;10.10;;;9.90;94.50;;;;;;5076153;28;20210;-68
2024/02/18 04:36:08;;;;;;;15.27;11.77;;;9.90;94.20;;;;;;5076127;28;20198;-69
2024/02/18 04:38:35;;;;;;;13.55;8.65;;;9.80;94.10;;;;;;5076346;28;20304;-69
2024/02/18 04:41:02;;;;;;;16.00;11.80;;;9.80;94.20;;;;;;5076456;28;20644;-69
2024/02/18 04:43:29;;;;;;;14.50;10.05;;;9.80;94.00;;;;;;5075467;28;20217;-69
2024/02/18 04:45:56;;;;;;;12.40;9.40;;;9.80;94.30;;;;;;5076249;28;20237;-69
2024/02/18 04:48:24;;;;;;;12.02;9.50;;;9.90;94.20;;;;;;5076214;28;20189;-69
2024/02/18 04:50:51;;;;;;;12.65;10.38;;;9.80;94.10;;;;;;5075585;28;20248;-69
2024/02/18 04:53:18;;;;;;;12.93;11.13;;;9.80;94.30;;;;;;5075796;28;20276;-69
2024/02/18 04:55:45;;;;;;;15.25;10.65;;;9.70;94.50;;;;;;5075617;28;20710;-68
2024/02/18 04:58:12;;;;;;;13.75;10.35;;;9.70;94.40;;;;;;5075756;28;20225;-69
2024/02/18 05:00:39;;;;;;;13.85;10.30;;;9.70;94.40;;;;;;5076233;28;20190;-69
2024/02/18 05:03:06;;;;;;;14.27;10.23;;;9.60;94.30;;;;;;5075965;28;20312;-69
2024/02/18 05:05:35;;;;;;;12.95;9.20;;;9.60;94.10;;;;;;5075242;28;20604;-69
2024/02/18 05:08:01;;;;;;;15.32;10.02;;;9.60;94.10;;;;;;5075899;28;20202;-69
2024/02/18 05:10:28;;;;;;;15.88;11.10;;;9.60;94.30;;;;;;5075635;28;20221;-69
2024/02/18 05:12:56;;;;;;;14.85;9.93;;;9.60;94.50;;;;;;5075647;28;20218;-70
2024/02/18 05:15:24;;;;;;;15.13;11.13;;;9.60;94.60;;;;;;5075404;28;20221;-69
2024/02/18 05:17:51;;;;;;;14.55;9.88;;;9.60;94.80;;;;;;5075821;28;20544;-68
2024/02/18 05:20:18;;;;;;;16.10;12.65;;;9.60;94.90;;;;;;5075361;28;20247;-69
2024/02/18 05:22:46;;;;;;;15.93;12.07;;;9.60;95.10;;;;;;5075313;28;20190;-69
2024/02/18 05:25:13;;;;;;;19.17;12.63;;;9.60;95.10;;;;;;5074731;28;20186;-68
2024/02/18 05:27:41;;;;;;;14.88;11.13;;;9.60;95.20;;;;;;5074610;28;20210;-69
2024/02/18 05:30:08;;;;;;;14.85;11.30;;;9.60;95.40;;;;;;5075181;28;20186;-69
2024/02/18 05:32:35;;;;;;;16.20;10.73;;;9.60;95.50;;;;;;5075476;28;20232;-69
2024/02/18 05:35:02;;;;;;;13.55;9.85;;;9.60;95.50;;;;;;5073971;28;20216;-69
2024/02/18 05:37:29;;;;;;;19.70;12.15;;;9.60;95.60;;;;;;5075073;28;20174;-69
2024/02/18 05:39:58;;;;;;;22.90;13.82;;;9.60;95.80;;;;;;5075318;28;20225;-69
2024/02/18 05:42:25;;;;;;;15.32;11.40;;;9.60;95.40;;;;;;5075151;28;20309;-69
2024/02/18 05:44:52;;;;;;;19.60;11.35;;;9.60;95.20;;;;;;5074277;28;20186;-69
2024/02/18 05:47:19;;;;;;;27.45;12.57;;;9.60;95.40;;;;;;5074754;28;20186;-69
2024/02/18 05:49:46;;;;;;;16.70;11.90;;;9.60;95.60;;;;;;5075179;28;20194;-69
2024/02/18 05:52:13;;;;;;;25.55;12.60;;;9.60;95.60;;;;;;5075042;28;20244;-69
2024/02/18 05:54:40;;;;;;;24.15;11.32;;;9.60;95.20;;;;;;5073580;28;20245;-69
2024/02/18 05:57:10;;;;;;;16.55;10.88;;;9.50;95.40;;;;;;5074911;28;20603;-69
2024/02/18 05:59:37;;;;;;;20.02;11.52;;;9.50;95.30;;;;;;5074949;28;20277;-69
2024/02/18 06:02:04;;;;;;;14.00;10.57;;;9.40;95.50;;;;;;5074781;28;20243;-69
2024/02/18 06:04:31;;;;;;;14.00;9.70;;;9.40;95.50;;;;;;5074444;28;20245;-68
2024/02/18 06:06:58;;;;;;;17.88;11.95;;;9.40;95.40;;;;;;5074679;28;20194;-68
2024/02/18 06:09:25;;;;;;;15.93;11.57;;;9.30;95.30;;;;;;5074536;28;20190;-69
2024/02/18 06:11:53;;;;;;;16.27;11.85;;;9.20;95.60;;;;;;5074273;28;20259;-69
2024/02/18 06:14:21;;;;;;;13.85;10.77;;;9.20;95.90;;;;;;5074163;28;20301;-69
2024/02/18 06:16:48;;;;;;;17.13;10.48;;;9.30;95.80;;;;;;5074255;28;20277;-69
2024/02/18 06:19:15;;;;;;;16.58;11.63;;;9.30;95.90;;;;;;5074205;28;20254;-69
2024/02/18 06:21:42;;;;;;;16.20;10.35;;;9.30;96.10;;;;;;5074538;28;20190;-69
2024/02/18 06:24:09;;;;;;;16.65;11.43;;;9.30;96.10;;;;;;5074122;28;20190;-69
2024/02/18 06:26:40;;;;;;;15.27;11.40;;;9.30;95.90;;;;;;5073635;28;20185;-69
2024/02/18 06:29:07;;;;;;;15.10;10.52;;;9.30;95.60;;;;;;5073908;28;20190;-69
2024/02/18 06:31:35;;;;;;;16.40;11.98;;;9.40;95.60;;;;;;5073885;28;20649;-69
2024/02/18 06:34:02;;;;;;;15.13;11.00;;;9.30;95.40;;;;;;5073537;28;20305;-69
2024/02/18 06:36:31;;;;;;;14.73;10.30;;;9.40;95.60;;;;;;5073368;28;20185;-69
2024/02/18 06:38:58;;;;;;;17.20;12.07;;;9.40;95.50;;;;;;5073626;28;20243;-69
2024/02/18 06:41:25;;;;;;;14.98;10.27;;;9.40;95.40;;;;;;5073342;28;20279;-69
2024/02/18 06:43:52;;;;;;;18.17;11.05;;;9.50;95.10;;;;;;5073960;28;20206;-69
2024/02/18 06:46:19;;;;;;;18.83;11.45;;;9.50;94.80;;;;;;5073125;28;20190;-69
2024/02/18 06:48:48;;;;;;;12.80;10.23;;;9.50;94.80;;;;;;5073847;28;20540;-69
2024/02/18 06:51:15;;;;;;;16.88;11.95;;;9.50;94.90;;;;;;5073448;28;20644;-69
2024/02/18 06:53:42;;;;;;;13.35;9.63;;;9.50;94.90;;;;;;5073801;28;20644;-69
2024/02/18 06:56:09;;;;;;;18.50;9.63;;;9.50;94.70;;;;;;5073202;28;20272;-69
2024/02/18 06:58:36;;;;;;;18.10;11.30;;;9.50;94.60;;;;;;5073317;28;20231;-68
2024/02/18 07:01:04;;;;;;;28.70;12.18;;;9.40;94.70;;;;;;5073526;28;20283;-69
2024/02/18 07:03:32;;;;;;;19.67;12.05;;;9.30;94.80;;;;;;5073552;28;20259;-69
2024/02/18 07:06:00;;;;;;;21.80;11.73;;;9.20;95.20;;;;;;5066324;28;20204;-69
2024/02/18 07:08:27;;;;;;;29.77;12.35;;;9.20;95.50;;;;;;5071043;28;20187;-69
2024/02/18 07:10:54;;;;;;;22.63;12.50;;;9.30;95.70;;;;;;5073088;28;20713;-69
2024/02/18 07:13:21;;;;;;;20.60;13.00;;;9.30;95.90;;;;;;5073377;28;20220;-68
2024/02/18 07:15:48;;;;;;;14.35;10.98;;;9.30;96.10;;;;;;5072559;28;20244;-69
2024/02/18 07:18:15;;;;;;;17.17;11.85;;;9.40;96.30;;;;;;5073535;28;20218;-69
2024/02/18 07:20:43;;;;;;;15.20;10.18;;;9.40;96.10;;;;;;5073296;28;20248;-69
2024/02/18 07:23:11;;;;;;;12.43;8.82;;;9.40;96.10;;;;;;5072997;28;20208;-69
2024/02/18 07:25:40;;;;;;;12.82;9.35;;;9.50;96.00;;;;;;5070295;28;20267;-69
2024/02/18 07:28:07;;;;;;;14.75;9.20;;;9.50;95.80;;;;;;5071882;28;20189;-69
2024/02/18 07:30:34;;;;;;;13.73;9.05;;;9.50;95.70;;;;;;5072122;28;20190;-69
2024/02/18 07:33:01;;;;;;;29.13;9.77;;;9.60;95.30;;;;;;5072233;28;20190;-68
2024/02/18 07:35:28;;;;;;;12.50;10.15;;;9.60;95.40;;;;;;5071354;28;20206;-69
2024/02/18 07:37:56;;;;;;;25.15;19.13;;;9.60;95.20;;;;;;5064617;28;20190;-69
2024/02/18 07:40:25;;;;;;;15.57;12.88;;;9.60;95.30;;;;;;5072084;28;20186;-69
2024/02/18 07:42:52;;;;;;;13.85;9.40;;;9.60;95.40;;;;;;5072546;28;20221;-69
2024/02/18 07:45:19;;;;;;;17.50;12.88;;;9.70;95.60;;;;;;5072143;28;20328;-69
2024/02/18 07:47:46;;;;;;;19.88;15.50;;;9.70;95.60;;;;;;5072275;28;20307;-69
2024/02/18 07:50:13;;;;;;;29.60;23.17;;;9.70;95.70;;;;;;5072614;28;20226;-69
2024/02/18 07:52:40;;;;;;;22.17;16.42;;;9.70;95.80;;;;;;5072521;28;20190;-69
2024/02/18 07:55:08;;;;;;;20.50;15.07;;;9.70;95.90;;;;;;5071432;28;20616;-69
2024/02/18 07:57:39;;;;;;;20.90;16.27;;;9.70;96.10;;;;;;5063968;28;20567;-69
2024/02/18 08:00:08;;;;;;;17.00;11.55;;;9.80;96.10;;;;;;5072220;28;20288;-69
2024/02/18 08:02:35;;;;;;;14.73;10.95;;;9.80;96.20;;;;;;5071309;28;20182;-69
2024/02/18 08:05:02;;;;;;;16.30;10.63;;;9.90;96.20;;;;;;5063039;28;20281;-69
2024/02/18 08:07:29;;;;;;;19.42;12.30;;;9.90;96.20;;;;;;5072108;28;20186;-69
2024/02/18 08:09:56;;;;;;;23.63;13.10;;;9.90;95.90;;;;;;5078775;28;20194;-69
2024/02/18 08:12:23;;;;;;;21.42;14.20;;;10.00;95.30;;;;;;5084763;28;20186;-69
2024/02/18 08:14:51;;;;;;;24.15;13.23;;;9.90;95.90;;;;;;5071398;28;20300;-69
2024/02/18 08:17:18;;;;;;;18.40;11.70;;;10.00;95.50;;;;;;5074017;28;20535;-69
2024/02/18 08:19:45;;;;;;;18.25;12.75;;;10.10;95.60;;;;;;5090189;28;20189;-69
2024/02/18 08:22:12;;;;;;;19.70;12.85;;;10.10;95.70;;;;;;5088685;28;20243;-69
2024/02/18 08:24:42;;;;;;;29.77;13.00;;;10.10;95.50;;;;;;5088563;28;20193;-69
2024/02/18 08:27:09;;;;;;;24.45;13.10;;;10.20;95.30;;;;;;5095967;28;20225;-69
2024/02/18 08:29:37;;;;;;;18.10;12.68;;;10.20;94.90;;;;;;5094645;28;20221;-69
2024/02/18 08:32:07;;;;;;;19.98;12.48;;;10.10;94.90;;;;;;5090337;28;20194;-69
2024/02/18 08:34:35;;;;;;;18.38;12.38;;;10.10;95.00;;;;;;5074976;28;20213;-69
2024/02/18 08:37:03;;;;;;;28.42;13.57;;;10.10;94.80;;;;;;5074787;28;20284;-69
2024/02/18 08:39:30;;;;;;;21.13;14.05;;;10.20;94.10;;;;;;5074587;28;20277;-69
2024/02/18 08:41:57;;;;;;;20.83;14.15;;;10.20;94.20;;;;;;5074061;28;20696;-69
2024/02/18 08:44:24;;;;;;;19.52;11.15;;;10.10;94.40;;;;;;5090829;28;20283;-69
2024/02/18 08:46:51;;;;;;;18.10;13.30;;;10.20;94.30;;;;;;5095456;28;20543;-69
2024/02/18 08:49:20;;;;;;;15.88;10.07;;;10.20;94.40;;;;;;5078247;28;20194;-69
2024/02/18 08:51:47;;;;;;;16.85;10.90;;;10.20;93.60;;;;;;5074712;28;20495;-69
2024/02/18 08:54:14;;;;;;;20.05;10.85;;;10.10;93.70;;;;;;5075000;28;20193;-69
2024/02/18 08:56:41;;;;;;;18.13;11.88;;;10.10;94.20;;;;;;5075083;28;20194;-69
2024/02/18 08:59:08;;;;;;;20.92;10.85;;;10.10;94.40;;;;;;5078570;28;20285;-69
2024/02/18 09:01:36;;;;;;;17.80;12.02;;;10.20;94.10;;;;;;5079164;28;20208;-69
2024/02/18 09:04:03;;;;;;;16.20;9.73;;;10.20;94.30;;;;;;5090106;28;20807;-69
2024/02/18 09:06:31;;;;;;;14.35;9.07;;;10.10;94.50;;;;;;5094934;28;20235;-69
2024/02/18 09:08:58;;;;;;;13.95;9.98;;;10.10;93.50;;;;;;5068035;28;20687;-69
2024/02/18 09:11:25;;;;;;;12.15;9.30;;;10.10;94.00;;;;;;5073679;28;20591;-69
2024/02/18 09:13:52;;;;;;;19.65;10.88;;;10.10;94.50;;;;;;5076868;28;20563;-69
2024/02/18 09:16:18;;;;;;;13.00;9.38;;;10.10;94.40;;;;;;5082013;28;20358;-69
2024/02/18 09:18:46;;;;;;;14.88;9.60;;;10.10;94.40;;;;;;5073893;28;20227;-69
2024/02/18 09:21:13;;;;;;;18.65;10.23;;;10.10;94.40;;;;;;5074800;28;20190;-69
2024/02/18 09:23:41;;;;;;;15.98;10.35;;;10.10;94.30;;;;;;5074423;28;20589;-69
2024/02/18 09:26:10;;;;;;;13.45;9.13;;;10.00;94.50;;;;;;5093296;28;20273;-68
2024/02/18 09:28:37;;;;;;;12.70;8.90;;;10.10;94.70;;;;;;5093628;28;20248;-70
2024/02/18 09:31:04;;;;;;;14.35;9.90;;;10.10;94.90;;;;;;5080737;28;20221;-69
2024/02/18 09:33:31;;;;;;;15.90;9.88;;;10.10;94.30;;;;;;5094021;28;20181;-69
2024/02/18 09:35:58;;;;;;;20.42;10.25;;;10.00;94.30;;;;;;5082373;28;20271;-69
2024/02/18 09:38:25;;;;;;;17.98;9.60;;;10.10;93.70;;;;;;5092547;28;20259;-69
2024/02/18 09:40:54;;;;;;;17.50;10.88;;;10.10;94.00;;;;;;5094279;28;20201;-69
2024/02/18 09:43:24;;;;;;;14.80;9.40;;;10.00;94.30;;;;;;5092204;28;20308;-69
2024/02/18 09:45:53;;;;;;;13.20;8.63;;;10.10;94.50;;;;;;5074104;28;20526;-69
2024/02/18 09:48:21;;;;;;;22.40;9.50;;;10.00;94.40;;;;;;5074204;28;20284;-69
2024/02/18 09:50:49;;;;;;;13.18;8.43;;;9.90;95.00;;;;;;5091517;28;20197;-69
2024/02/18 09:53:18;;;;;;;13.10;8.27;;;9.90;95.20;;;;;;5093711;28;20220;-69
2024/02/18 09:55:48;;;;;;;11.63;8.30;;;9.90;95.60;;;;;;5093877;28;20205;-69
2024/02/18 09:58:18;;;;;;;15.20;10.35;;;9.90;95.60;;;;;;5094438;28;20193;-69
2024/02/18 10:00:45;;;;;;;11.82;9.32;;;10.00;95.60;;;;;;5094263;28;20517;-69
2024/02/18 10:03:12;;;;;;;9.98;6.47;;;10.00;95.50;;;;;;5093908;28;20707;-69
2024/02/18 10:05:39;;;;;;;13.77;8.15;;;10.10;94.90;;;;;;5094320;28;20201;-69
2024/02/18 10:08:07;;;;;;;10.13;7.05;;;10.10;94.20;;;;;;5094302;28;20223;-69
2024/02/18 10:10:34;;;;;;;11.35;8.68;;;10.10;94.40;;;;;;5094138;28;20189;-69
2024/02/18 10:13:02;;;;;;;9.73;7.65;;;10.20;94.50;;;;;;5094044;28;20217;-69
2024/02/18 10:15:30;;;;;;;10.13;7.28;;;10.30;94.60;;;;;;5093570;28;20277;-69
2024/02/18 10:17:57;;;;;;;10.18;6.97;;;10.40;94.00;;;;;;5094138;28;20280;-69
2024/02/18 10:20:28;;;;;;;10.13;6.10;;;10.50;93.50;;;;;;5093420;28;20232;-69
2024/02/18 10:22:55;;;;;;;7.25;5.38;;;10.60;93.20;;;;;;5094031;28;20181;-69
2024/02/18 10:25:22;;;;;;;11.43;6.88;;;10.50;93.50;;;;;;5093667;28;20275;-69
2024/02/18 10:27:49;;;;;;;8.40;5.80;;;10.70;93.40;;;;;;5093563;28;20194;-69
2024/02/18 10:30:17;;;;;;;9.68;6.97;;;10.90;93.00;;;;;;5073162;28;20535;-69
2024/02/18 10:32:45;;;;;;;9.73;5.95;;;10.90;92.90;;;;;;5073308;28;20571;-69
2024/02/18 10:35:12;;;;;;;8.32;5.95;;;11.00;93.20;;;;;;5071005;28;20296;-69
2024/02/18 10:37:41;;;;;;;9.33;7.17;;;11.20;93.30;;;;;;5071559;28;20237;-69
2024/02/18 10:40:13;;;;;;;8.37;6.80;;;11.40;93.30;;;;;;5073218;28;20522;-69
2024/02/18 10:42:43;;;;;;;8.50;6.13;;;11.60;93.30;;;;;;5073020;28;20558;-69
2024/02/18 10:45:12;;;;;;;8.80;5.37;;;11.80;92.30;;;;;;5072404;28;20431;-69
2024/02/18 10:47:45;;;;;;;9.90;6.30;;;12.00;91.90;;;;;;5073038;28;20432;-69
2024/02/18 10:50:17;;;;;;;9.60;6.37;;;12.10;91.10;;;;;;5072817;28;20452;-69
2024/02/18 10:52:46;;;;;;;9.60;7.40;;;12.20;91.20;;;;;;5072751;28;20510;-69
2024/02/18 10:55:17;;;;;;;10.20;6.83;;;12.40;91.30;;;;;;5071991;28;20556;-69
2024/02/18 10:57:48;;;;;;;7.80;6.00;;;12.50;90.90;;;;;;5072658;28;20439;-69
2024/02/18 11:00:18;;;;;;;8.23;6.00;;;12.60;90.00;;;;;;5072557;28;20452;-69
2024/02/18 11:02:53;;;;;;;10.47;7.20;;;12.60;88.80;;;;;;5072856;28;20441;-69
2024/02/18 11:05:22;;;;;;;8.90;6.57;;;12.70;87.90;;;;;;5072289;28;20427;-69
2024/02/18 11:07:50;;;;;;;8.80;7.20;;;12.80;88.50;;;;;;5072789;28;20527;-69
2024/02/18 11:10:17;;;;;;;8.53;6.37;;;12.90;87.30;;;;;;5072900;28;20436;-69
2024/02/18 11:12:46;;;;;;;9.50;7.10;;;12.90;85.60;;;;;;5072765;28;20428;-69
2024/02/18 11:15:13;;;;;;;11.27;9.07;;;13.10;87.00;;;;;;5072574;28;20428;-69
2024/02/18 11:17:41;;;;;;;9.30;6.40;;;13.30;87.90;;;;;;5072615;28;20849;-70
2024/02/18 11:20:11;;;;;;;9.50;7.70;;;13.80;88.30;;;;;;5072562;28;20435;-69
2024/02/18 11:22:40;;;;;;;9.03;6.33;;;14.10;86.90;;;;;;5072077;28;20444;-69
2024/02/18 11:25:08;;;;;;;8.57;6.20;;;14.50;84.50;;;;;;5072631;28;20460;-69
2024/02/18 11:27:36;;;;;;;9.03;6.70;;;14.70;81.10;;;;;;5072507;28;20463;-69
2024/02/18 11:30:05;;;;;;;10.40;7.97;;;14.90;78.30;;;;;;5072665;28;20438;-68
2024/02/18 11:32:32;;;;;;;9.27;6.90;;;15.00;77.40;;;;;;5072476;28;20456;-68
2024/02/18 11:35:08;;;;;;;8.90;6.30;;;15.60;78.20;;;;;;5072229;28;20468;-69
2024/02/18 11:37:36;;;;;;;8.27;5.73;;;16.60;76.10;;;;;;5070965;28;20461;-69
2024/02/18 11:40:08;;;;;;;7.80;5.73;;;17.50;73.50;;;;;;5071564;28;20784;-69
2024/02/18 11:42:39;;;;;;;9.93;8.90;;;18.40;68.90;;;;;;5072492;28;20517;-69
2024/02/18 11:45:10;;;;;;;7.63;5.43;;;19.40;64.60;;;;;;5072197;28;20439;-69
2024/02/18 11:47:37;;;;;;;7.30;5.30;;;20.20;62.40;;;;;;5072440;28;20416;-69
2024/02/18 11:50:05;;;;;;;7.40;6.03;;;20.80;59.70;;;;;;5072239;28;20918;-69
2024/02/18 11:52:33;;;;;;;8.03;6.17;;;21.40;57.40;;;;;;5074435;28;20844;-69
2024/02/18 11:55:00;;;;;;;7.13;6.10;;;22.00;55.40;;;;;;5076324;28;20431;-69
2024/02/18 11:57:28;;;;;;;7.53;5.57;;;22.60;53.30;;;;;;5076177;28;20866;-69
2024/02/18 11:59:56;;;;;;;8.03;5.87;;;23.00;50.90;;;;;;5076055;28;20837;-69
2024/02/18 12:02:23;;;;;;;6.60;5.47;;;23.30;49.40;;;;;;5075923;28;20444;-69
2024/02/18 12:04:52;;;;;;;7.80;5.97;;;23.60;48.80;;;;;;5075984;28;20467;-69
2024/02/18 12:07:19;;;;;;;6.80;5.37;;;23.90;48.50;;;;;;5076194;28;20442;-69
2024/02/18 12:09:45;;;;;;;7.90;5.80;;;24.20;45.90;;;;;;5075742;28;20504;-69
2024/02/18 12:12:12;;;;;;;7.17;5.70;;;24.40;44.90;;;;;;5074853;28;20880;-69
2024/02/18 12:14:55;;;;;;;7.00;5.53;;;24.50;44.10;;;;;;5075631;28;20436;-69
2024/02/18 12:17:22;;;;;;;7.27;5.77;;;24.50;43.40;;;;;;5075816;28;20463;-69
2024/02/18 12:19:51;;;;;;;6.70;5.43;;;24.40;42.50;;;;;;5075318;28;20940;-69
2024/02/18 12:22:22;;;;;;;7.00;5.63;;;24.20;42.70;;;;;;5072587;28;20919;-70
2024/02/18 12:24:50;;;;;;;6.57;4.97;;;24.20;42.70;;;;;;5075498;28;20515;-69
2024/02/18 12:27:18;;;;;;;6.33;5.10;;;24.20;43.10;;;;;;5081559;28;20920;-69
2024/02/18 12:29:45;;;;;;;6.20;4.93;;;24.10;43.00;;;;;;5095484;28;20517;-69
2024/02/18 12:32:14;;;;;;;7.07;5.17;;;24.00;42.80;;;;;;5082694;28;20577;-69
2024/02/18 12:34:43;;;;;;;8.33;5.67;;;23.90;42.10;;;;;;5079157;28;20682;-69
2024/02/18 12:37:10;;;;;;;6.50;5.23;;;23.90;41.20;;;;;;5095057;28;20536;-69